Terminal Aerodrome Forecast
Issued by NWS

Home | Current Version | Previous Version | Text Only | Print | Product List | Glossary On
Versions: 1 2 3 4 5 6 7 8 9 10 11 12 13 14 15 16 17
000
FTUS42 KMLB 270520
TAFISM
TAF
KISM 270520Z 2706/2806 19003KT P6SM FEW030 SCT080
     FM271400 27004KT P6SM SCT025 SCT080
     FM271800 VRB05KT P6SM VCTS BKN035CB BKN060
      TEMPO 2719/2722 3SM TSRA BKN025CB
     FM272300 VRB04KT P6SM VCSH SCT025 BKN070=

USA.gov is the U.S. government's official web portal to all federal, state and local government web resources and services.